Time;durP1;ratioP1;P1;durP2;ratioP2;P2;SDS_P1;SDS_P2;PMS_P1;PMS_P2;Temp;Humidity;BMP_temperature;BMP_pressure;BME280_temperature;BME280_humidity;BME280_pressure;Samples;Min_cycle;Max_cycle;Signal;HPM_P1;HPM_P2
2023/12/15 00:01:50;;;;;;;53.40;15.32;;;;;;;3.11;100.00;98438.22;5098620;28;20390;-83
2023/12/15 00:04:17;;;;;;;70.53;19.73;;;;;;;3.11;100.00;98436.41;5102166;28;20885;-83
2023/12/15 00:06:43;;;;;;;66.13;16.63;;;;;;;3.09;100.00;98443.63;5100200;28;20484;-83
2023/12/15 00:09:10;;;;;;;85.93;19.63;;;;;;;3.07;100.00;98443.00;5100633;28;20421;-84
2023/12/15 00:11:37;;;;;;;56.17;15.40;;;;;;;3.06;100.00;98443.19;5100466;28;20398;-83
2023/12/15 00:14:03;;;;;;;44.40;12.93;;;;;;;3.05;100.00;98450.22;5098046;28;20397;-83
2023/12/15 00:16:29;;;;;;;44.60;14.15;;;;;;;3.08;100.00;98452.44;5098703;28;20402;-83
2023/12/15 00:18:55;;;;;;;47.53;13.30;;;;;;;3.09;100.00;98455.88;5098318;28;20854;-83
2023/12/15 00:21:24;;;;;;;42.45;12.25;;;;;;;3.07;100.00;98457.88;5101321;28;20398;-83
2023/12/15 00:23:50;;;;;;;42.10;11.68;;;;;;;3.09;100.00;98458.50;5100178;28;20426;-83
2023/12/15 00:26:16;;;;;;;36.90;11.30;;;;;;;3.11;100.00;98456.53;5098777;28;20433;-83
2023/12/15 00:28:43;;;;;;;52.90;15.90;;;;;;;3.09;100.00;98461.94;5097909;28;20823;-83
2023/12/15 00:31:10;;;;;;;46.15;14.25;;;;;;;3.08;100.00;98470.75;5096936;28;20463;-83
2023/12/15 00:33:36;;;;;;;43.50;13.32;;;;;;;3.07;100.00;98469.16;5098353;28;20394;-83
2023/12/15 00:36:02;;;;;;;47.75;14.48;;;;;;;3.04;100.00;98474.75;5096982;28;20394;-83
2023/12/15 00:38:28;;;;;;;43.75;12.80;;;;;;;3.02;100.00;98486.34;5098970;28;20765;-83
2023/12/15 00:40:54;;;;;;;63.15;17.02;;;;;;;3.02;100.00;98494.19;5105695;28;20757;-84
2023/12/15 00:43:20;;;;;;;56.92;16.67;;;;;;;2.96;100.00;98492.28;5111454;28;20410;-84
2023/12/15 00:45:48;;;;;;;48.80;14.60;;;;;;;2.91;100.00;98490.22;5109845;28;20393;-84
2023/12/15 00:48:14;;;;;;;50.85;13.25;;;;;;;2.89;100.00;98492.19;5097461;28;20381;-83
2023/12/15 00:50:40;;;;;;;53.75;16.00;;;;;;;2.87;100.00;98501.19;5095567;28;20414;-83
2023/12/15 00:53:06;;;;;;;64.97;18.60;;;;;;;2.78;100.00;98505.69;5096181;28;20390;-83
2023/12/15 00:55:32;;;;;;;56.85;14.32;;;;;;;2.74;100.00;98496.53;5096689;28;20412;-84
2023/12/15 00:57:59;;;;;;;36.25;11.55;;;;;;;2.76;100.00;98507.66;5097028;28;20390;-83
2023/12/15 01:00:25;;;;;;;72.17;18.07;;;;;;;2.75;100.00;98513.84;5098441;28;20397;-84
2023/12/15 01:02:52;;;;;;;83.30;19.10;;;;;;;2.70;100.00;98514.38;5110531;28;20394;-84
2023/12/15 01:05:18;;;;;;;72.70;18.20;;;;;;;2.67;100.00;98511.28;5105258;28;20445;-83
2023/12/15 01:07:45;;;;;;;74.13;16.83;;;;;;;2.64;100.00;98517.66;5099892;28;20489;-84
2023/12/15 01:10:11;;;;;;;94.73;21.17;;;;;;;2.62;100.00;98519.66;5095881;28;20413;-83
2023/12/15 01:12:37;;;;;;;85.00;19.92;;;;;;;2.61;100.00;98512.00;5096426;28;20394;-83
2023/12/15 01:15:04;;;;;;;81.93;17.15;;;;;;;2.60;100.00;98526.84;5096424;28;20776;-83
2023/12/15 01:17:30;;;;;;;60.33;14.57;;;;;;;2.63;100.00;98529.09;5095957;28;20392;-83
2023/12/15 01:19:58;;;;;;;88.25;19.63;;;;;;;2.62;100.00;98531.91;5095479;28;20447;-84
2023/12/15 01:22:24;;;;;;;81.45;17.55;;;;;;;2.61;100.00;98541.56;5106433;28;20402;-84
2023/12/15 01:24:50;;;;;;;70.97;16.42;;;;;;;2.62;100.00;98547.59;5109318;28;20412;-85
2023/12/15 01:27:16;;;;;;;74.22;16.90;;;;;;;2.62;100.00;98553.66;5097294;28;20433;-83
2023/12/15 01:29:42;;;;;;;61.40;14.97;;;;;;;2.64;100.00;98550.84;5095480;28;20445;-84
2023/12/15 01:32:08;;;;;;;79.43;16.45;;;;;;;2.64;100.00;98569.13;5094921;28;20396;-83
2023/12/15 01:34:34;;;;;;;80.53;18.30;;;;;;;2.65;100.00;98565.53;5095298;28;20417;-83
2023/12/15 01:37:02;;;;;;;88.75;19.02;;;;;;;2.59;100.00;98572.28;5095529;28;20406;-83
2023/12/15 01:39:28;;;;;;;113.28;22.27;;;;;;;2.58;100.00;98568.03;5095729;28;20849;-84
2023/12/15 01:41:54;;;;;;;108.65;21.85;;;;;;;2.54;100.00;98571.97;5095893;28;20466;-83
2023/12/15 01:44:20;;;;;;;88.30;18.52;;;;;;;2.51;100.00;98577.53;5095278;28;20398;-83
2023/12/15 01:46:47;;;;;;;67.65;14.90;;;;;;;2.51;100.00;98582.75;5094734;28;20412;-83
2023/12/15 01:49:13;;;;;;;53.47;12.10;;;;;;;2.56;100.00;98584.84;5094587;28;20509;-83
2023/12/15 01:51:39;;;;;;;43.05;11.50;;;;;;;2.62;100.00;98585.00;5094912;28;20465;-83
2023/12/15 01:54:07;;;;;;;34.80;9.93;;;;;;;2.66;100.00;98588.91;5094887;28;20390;-84
2023/12/15 01:56:33;;;;;;;82.60;18.17;;;;;;;2.69;100.00;98590.38;5096693;28;20392;-84
2023/12/15 01:58:59;;;;;;;88.25;19.95;;;;;;;2.65;100.00;98584.66;5097011;28;20401;-83
2023/12/15 02:01:25;;;;;;;113.70;24.57;;;;;;;2.54;100.00;98587.66;5096254;28;20476;-83
2023/12/15 02:03:51;;;;;;;98.50;23.55;;;;;;;2.45;100.00;98582.63;5096015;28;20425;-83
2023/12/15 02:06:17;;;;;;;116.85;26.15;;;;;;;2.32;100.00;98577.97;5097531;28;20409;-83
2023/12/15 02:08:44;;;;;;;107.40;26.05;;;;;;;2.25;100.00;98583.06;5095484;28;20396;-83
2023/12/15 02:11:12;;;;;;;116.73;25.27;;;;;;;2.17;100.00;98597.94;5096153;28;20407;-84
2023/12/15 02:13:38;;;;;;;94.60;20.50;;;;;;;2.10;100.00;98583.91;5096335;28;20425;-83
2023/12/15 02:16:05;;;;;;;68.13;16.58;;;;;;;2.00;100.00;98591.94;5096759;28;20444;-83
2023/12/15 02:18:31;;;;;;;67.87;16.10;;;;;;;1.94;100.00;98587.38;5097943;28;20881;-83
2023/12/15 02:20:57;;;;;;;68.38;16.92;;;;;;;1.84;100.00;98590.16;5096141;28;20911;-83
2023/12/15 02:23:24;;;;;;;75.00;16.15;;;;;;;1.76;100.00;98594.56;5096393;28;20455;-83
2023/12/15 02:25:51;;;;;;;60.55;14.63;;;;;;;1.68;100.00;98595.41;5096826;28;20397;-83
2023/12/15 02:28:17;;;;;;;62.00;13.73;;;;;;;1.62;100.00;98600.47;5097368;28;20418;-83
2023/12/15 02:30:43;;;;;;;53.75;13.57;;;;;;;1.55;100.00;98587.25;5102805;28;20459;-84
2023/12/15 02:33:11;;;;;;;86.10;19.48;;;;;;;1.52;100.00;98598.03;5107272;28;20401;-84
2023/12/15 02:35:38;;;;;;;76.70;17.50;;;;;;;1.47;100.00;98600.31;5107855;28;20461;-83
2023/12/15 02:38:07;;;;;;;59.58;14.18;;;;;;;1.44;100.00;98609.28;5107784;28;20390;-84
2023/12/15 02:40:35;;;;;;;101.60;21.20;;;;;;;1.44;100.00;98606.66;5096582;28;20521;-83
2023/12/15 02:43:01;;;;;;;93.82;20.83;;;;;;;1.49;100.00;98611.41;5093135;28;20392;-83
2023/12/15 02:45:27;;;;;;;77.50;18.00;;;;;;;1.57;100.00;98614.03;5092714;28;20485;-83
2023/12/15 02:47:53;;;;;;;103.32;22.27;;;;;;;1.64;100.00;98622.00;5092752;28;20397;-83
2023/12/15 02:50:19;;;;;;;95.93;22.27;;;;;;;1.71;100.00;98626.41;5092855;28;20414;-83
2023/12/15 02:52:47;;;;;;;117.75;24.42;;;;;;;1.79;100.00;98633.41;5093163;28;20841;-83
2023/12/15 02:55:13;;;;;;;102.40;25.17;;;;;;;1.84;100.00;98628.50;5094365;28;20471;-83
2023/12/15 02:57:40;;;;;;;80.55;20.10;;;;;;;1.91;100.00;98626.84;5096412;28;20492;-84
2023/12/15 03:00:08;;;;;;;83.65;19.75;;;;;;;1.97;100.00;98631.41;5094711;28;20394;-84
2023/12/15 03:02:34;;;;;;;96.97;23.08;;;;;;;1.99;100.00;98633.88;5093227;28;20438;-84
2023/12/15 03:05:00;;;;;;;93.90;24.33;;;;;;;2.03;100.00;98641.19;5093532;28;20397;-84
2023/12/15 03:07:26;;;;;;;114.75;26.27;;;;;;;2.04;100.00;98635.00;5094278;28;20779;-84
2023/12/15 03:09:52;;;;;;;101.03;24.48;;;;;;;2.07;100.00;98645.13;5092678;28;20425;-84
2023/12/15 03:12:18;;;;;;;82.72;21.77;;;;;;;2.11;100.00;98650.81;5093078;28;20430;-84
2023/12/15 03:14:46;;;;;;;105.70;26.48;;;;;;;2.13;100.00;98656.69;5092495;28;20405;-84
2023/12/15 03:17:12;;;;;;;92.13;23.85;;;;;;;2.15;100.00;98662.56;5092180;28;20906;-84
2023/12/15 03:19:39;;;;;;;89.97;22.50;;;;;;;2.16;100.00;98662.41;5092433;28;20481;-84
2023/12/15 03:22:05;;;;;;;96.50;25.50;;;;;;;2.17;100.00;98668.44;5092481;28;20384;-84
2023/12/15 03:24:31;;;;;;;85.22;21.42;;;;;;;2.21;100.00;98665.31;5091942;28;20404;-84
2023/12/15 03:26:57;;;;;;;79.45;21.10;;;;;;;2.25;100.00;98665.81;5092110;28;20433;-84
2023/12/15 03:29:23;;;;;;;87.13;23.45;;;;;;;2.24;100.00;98664.19;5092346;28;20418;-85
2023/12/15 03:31:51;;;;;;;79.75;21.08;;;;;;;2.26;100.00;98662.22;5091883;28;20423;-84
2023/12/15 03:34:17;;;;;;;94.18;23.85;;;;;;;2.26;100.00;98667.44;5092381;28;20424;-85
2023/12/15 03:36:43;;;;;;;80.32;21.17;;;;;;;2.29;100.00;98675.75;5092247;28;20857;-84
2023/12/15 03:39:09;;;;;;;62.90;17.80;;;;;;;2.31;100.00;98678.22;5092052;28;20401;-84
2023/12/15 03:41:36;;;;;;;58.05;16.45;;;;;;;2.35;100.00;98682.09;5092390;28;20789;-84
2023/12/15 03:44:02;;;;;;;90.43;24.13;;;;;;;2.33;100.00;98684.88;5098575;28;20404;-85
2023/12/15 03:46:29;;;;;;;61.05;16.83;;;;;;;2.38;100.00;98687.00;5100451;28;20393;-85
2023/12/15 03:48:57;;;;;;;59.95;16.23;;;;;;;2.41;100.00;98688.47;5100386;28;20928;-84
2023/12/15 03:51:23;;;;;;;56.70;14.88;;;;;;;2.43;100.00;98694.34;5091840;28;20893;-85
2023/12/15 03:53:50;;;;;;;49.08;15.07;;;;;;;2.43;100.00;98696.94;5091987;28;20476;-85
2023/12/15 03:56:24;;;;;;;39.72;12.98;;;;;;;2.45;100.00;98695.81;5091994;28;20393;-85
2023/12/15 03:58:50;;;;;;;40.53;12.15;;;;;;;2.48;100.00;98702.53;5091930;28;20426;-85
2023/12/15 04:01:16;;;;;;;36.22;11.90;;;;;;;2.48;100.00;98692.84;5091904;28;20406;-85
2023/12/15 04:03:42;;;;;;;71.15;19.80;;;;;;;2.46;100.00;98697.44;5092156;28;21070;-85
2023/12/15 04:06:10;;;;;;;61.22;17.13;;;;;;;2.47;100.00;98700.88;5092055;28;20477;-83
2023/12/15 04:08:36;;;;;;;56.20;16.08;;;;;;;2.46;100.00;98699.25;5091799;28;20422;-83
2023/12/15 04:11:02;;;;;;;73.77;19.17;;;;;;;2.46;100.00;98696.63;5091674;28;20414;-84
2023/12/15 04:13:28;;;;;;;52.42;15.40;;;;;;;2.46;100.00;98702.69;5091587;28;20403;-83
2023/12/15 04:15:54;;;;;;;47.28;14.10;;;;;;;2.45;100.00;98711.50;5091620;28;20481;-84
2023/12/15 04:18:20;;;;;;;52.90;15.68;;;;;;;2.48;100.00;98715.59;5098668;28;20493;-84
2023/12/15 04:20:47;;;;;;;63.42;17.67;;;;;;;2.45;100.00;98716.72;5097545;28;20437;-84
2023/12/15 04:23:14;;;;;;;70.03;17.77;;;;;;;2.43;100.00;98716.06;5103806;28;20943;-86
2023/12/15 04:25:40;;;;;;;57.23;15.70;;;;;;;2.45;100.00;98713.28;5101716;28;20927;-83
2023/12/15 04:28:06;;;;;;;46.47;14.05;;;;;;;2.44;100.00;98729.94;5102478;28;20512;-83
2023/12/15 04:30:32;;;;;;;51.58;14.40;;;;;;;2.44;100.00;98732.56;5101810;28;20774;-83
2023/12/15 04:32:59;;;;;;;47.63;13.88;;;;;;;2.43;100.00;98738.75;5091572;28;20394;-83
2023/12/15 04:35:25;;;;;;;49.58;13.98;;;;;;;2.42;100.00;98743.16;5091951;28;20727;-84
2023/12/15 04:37:51;;;;;;;49.80;13.18;;;;;;;2.43;100.00;98741.38;5095096;28;20499;-84
2023/12/15 04:40:18;;;;;;;47.40;13.25;;;;;;;2.39;100.00;98735.69;5095088;28;20490;-83
2023/12/15 04:42:44;;;;;;;47.05;13.50;;;;;;;2.42;100.00;98739.75;5094881;28;20460;-82
2023/12/15 04:45:11;;;;;;;49.07;12.90;;;;;;;2.41;100.00;98738.09;5095338;28;20885;-82
2023/12/15 04:47:38;;;;;;;45.63;12.00;;;;;;;2.42;100.00;98748.41;5095013;28;20386;-83
2023/12/15 04:50:05;;;;;;;41.77;12.00;;;;;;;2.42;100.00;98748.41;5094712;28;20409;-82
2023/12/15 04:52:31;;;;;;;43.53;12.82;;;;;;;2.41;100.00;98741.53;5015510;28;20438;-83
2023/12/15 04:54:57;;;;;;;43.20;12.07;;;;;;;2.40;100.00;98747.78;4985394;28;20458;-82
2023/12/15 04:57:24;;;;;;;33.25;11.45;;;;;;;2.42;100.00;98764.06;4981671;28;20414;-82
2023/12/15 04:59:51;;;;;;;37.30;11.77;;;;;;;2.44;100.00;98758.69;4986722;28;20845;-82
2023/12/15 05:02:17;;;;;;;40.25;11.43;;;;;;;2.45;100.00;98755.09;4999264;28;20426;-82
2023/12/15 05:04:43;;;;;;;42.90;11.77;;;;;;;2.45;100.00;98757.72;4984932;28;20400;-82
2023/12/15 05:07:09;;;;;;;37.75;11.38;;;;;;;2.45;100.00;98760.31;4984413;28;20472;-82
2023/12/15 05:09:35;;;;;;;41.20;11.80;;;;;;;2.45;100.00;98763.75;4986698;28;20932;-83
2023/12/15 05:12:03;;;;;;;50.63;13.38;;;;;;;2.45;100.00;98760.31;4996469;28;20890;-83
2023/12/15 05:14:30;;;;;;;58.03;15.25;;;;;;;2.44;100.00;98761.31;4990549;28;20438;-83
2023/12/15 05:16:56;;;;;;;59.80;16.13;;;;;;;2.45;100.00;98765.56;4997533;28;20463;-83
2023/12/15 05:19:22;;;;;;;57.30;16.02;;;;;;;2.44;100.00;98775.19;4994751;28;20483;-84
2023/12/15 05:21:48;;;;;;;55.03;16.02;;;;;;;2.44;100.00;98780.41;4983795;28;20406;-84
2023/12/15 05:24:15;;;;;;;54.30;15.27;;;;;;;2.45;100.00;98787.28;4989135;28;20411;-84
2023/12/15 05:26:42;;;;;;;50.03;14.10;;;;;;;2.46;100.00;98788.09;5002599;28;20893;-84
2023/12/15 05:29:08;;;;;;;58.08;17.30;;;;;;;2.46;100.00;98788.91;4997188;28;20406;-84
2023/12/15 05:31:35;;;;;;;58.67;16.60;;;;;;;2.46;100.00;98799.38;4997422;28;20403;-83
2023/12/15 05:34:01;;;;;;;50.92;14.65;;;;;;;2.45;100.00;98802.13;5026576;28;20478;-83
2023/12/15 05:36:27;;;;;;;69.50;20.05;;;;;;;2.44;100.00;98805.72;5046567;28;20828;-83
2023/12/15 05:38:54;;;;;;;58.30;16.07;;;;;;;2.43;100.00;98812.75;4991416;28;20398;-83
2023/12/15 05:41:20;;;;;;;82.65;21.25;;;;;;;2.44;100.00;98817.00;5004478;28;20409;-83
2023/12/15 05:43:46;;;;;;;52.78;16.58;;;;;;;2.44;100.00;98816.19;4990975;28;20409;-83
2023/12/15 05:46:13;;;;;;;50.08;15.25;;;;;;;2.44;100.00;98827.44;4991931;28;20430;-84
2023/12/15 05:48:40;;;;;;;91.93;25.63;;;;;;;2.42;100.00;98833.81;4972697;28;20861;-84
2023/12/15 05:51:07;;;;;;;72.85;20.23;;;;;;;2.45;100.00;98843.94;4980716;28;20954;-82
2023/12/15 05:53:33;;;;;;;72.90;20.83;;;;;;;2.47;100.00;98844.63;4990555;28;20396;-84
2023/12/15 05:55:59;;;;;;;66.13;18.00;;;;;;;2.47;100.00;98848.03;4991547;28;20395;-84
2023/12/15 05:58:26;;;;;;;53.25;16.67;;;;;;;2.51;100.00;98857.19;4990678;28;20402;-83
2023/12/15 06:00:52;;;;;;;48.92;15.45;;;;;;;2.52;100.00;98852.78;4993507;28;20911;-83
2023/12/15 06:03:18;;;;;;;43.58;14.20;;;;;;;2.53;100.00;98847.38;4986745;28;20493;-83
2023/12/15 06:05:45;;;;;;;67.43;19.17;;;;;;;2.51;100.00;98849.34;4985657;28;20446;-84
2023/12/15 06:08:13;;;;;;;57.88;16.83;;;;;;;2.51;100.00;98862.41;4992153;28;20901;-83
2023/12/15 06:10:40;;;;;;;51.95;16.00;;;;;;;2.51;100.00;98862.41;4996498;28;20468;-83
2023/12/15 06:13:07;;;;;;;50.20;14.23;;;;;;;2.51;100.00;98864.19;4982507;28;20946;-83
2023/12/15 06:15:33;;;;;;;53.75;17.05;;;;;;;2.51;100.00;98878.09;4984075;28;20401;-83
2023/12/15 06:18:00;;;;;;;52.08;16.30;;;;;;;2.52;100.00;98871.06;4981228;28;20442;-82
2023/12/15 06:20:26;;;;;;;51.73;16.40;;;;;;;2.51;100.00;98879.88;5018877;28;20412;-83
2023/12/15 06:22:53;;;;;;;65.22;17.42;;;;;;;2.52;100.00;98884.94;5074417;28;20400;-83
2023/12/15 06:25:19;;;;;;;52.15;15.88;;;;;;;2.53;100.00;98891.81;4995073;28;20435;-84
2023/12/15 06:27:45;;;;;;;41.87;14.50;;;;;;;2.53;100.00;98897.03;5007163;28;20468;-84
2023/12/15 06:30:13;;;;;;;43.28;14.70;;;;;;;2.54;100.00;98896.06;5040634;28;20414;-83
2023/12/15 06:32:39;;;;;;;56.10;16.70;;;;;;;2.55;100.00;98896.88;5070189;28;20406;-83
2023/12/15 06:35:06;;;;;;;57.93;17.57;;;;;;;2.55;100.00;98894.28;5056934;28;20444;-83
2023/12/15 06:37:32;;;;;;;75.30;20.98;;;;;;;2.52;100.00;98900.63;5014849;28;20474;-83
2023/12/15 06:39:59;;;;;;;59.05;17.30;;;;;;;2.53;100.00;98893.63;5042508;28;20403;-82
2023/12/15 06:42:26;;;;;;;50.15;15.35;;;;;;;2.52;100.00;98903.25;5029223;28;20488;-82
2023/12/15 06:44:52;;;;;;;54.42;16.42;;;;;;;2.52;100.00;98905.88;5037935;28;20401;-82
2023/12/15 06:47:18;;;;;;;49.77;15.50;;;;;;;2.51;100.00;98914.69;5025090;28;20490;-83
2023/12/15 06:49:44;;;;;;;52.53;16.73;;;;;;;2.52;100.00;98907.66;5040830;28;20513;-83
2023/12/15 06:52:10;;;;;;;53.17;15.88;;;;;;;2.51;100.00;98916.47;5036836;28;20407;-83
2023/12/15 06:54:39;;;;;;;55.92;16.38;;;;;;;2.51;100.00;98924.31;5022988;28;20759;-83
2023/12/15 06:57:07;;;;;;;50.88;15.60;;;;;;;2.52;100.00;98933.78;5001793;28;20976;-82
2023/12/15 06:59:33;;;;;;;51.22;15.68;;;;;;;2.53;100.00;98932.81;5018606;28;20667;-81
2023/12/15 07:01:59;;;;;;;46.97;14.30;;;;;;;2.55;100.00;98933.47;4998357;28;20448;-82
2023/12/15 07:04:25;;;;;;;41.80;12.73;;;;;;;2.55;100.00;98936.91;4983553;28;20436;-82
2023/12/15 07:06:52;;;;;;;45.10;14.07;;;;;;;2.57;100.00;98944.56;4990190;28;20456;-82
2023/12/15 07:09:19;;;;;;;44.50;14.50;;;;;;;2.57;100.00;98944.56;4984837;28;20404;-82
2023/12/15 07:11:46;;;;;;;51.88;15.30;;;;;;;2.57;100.00;98948.00;4994695;28;20464;-82
2023/12/15 07:14:14;;;;;;;47.45;13.93;;;;;;;2.58;100.00;98949.63;4987026;28;20397;-83
2023/12/15 07:16:40;;;;;;;71.03;20.58;;;;;;;2.58;100.00;98947.03;4990588;28;20427;-83
2023/12/15 07:19:06;;;;;;;81.25;22.70;;;;;;;2.57;100.00;98950.63;4990218;28;20793;-83
2023/12/15 07:21:33;;;;;;;64.35;19.08;;;;;;;2.59;100.00;98960.91;4990290;28;20407;-83
2023/12/15 07:23:59;;;;;;;58.08;18.45;;;;;;;2.60;100.00;98959.94;4999074;28;20400;-83
2023/12/15 07:26:25;;;;;;;59.83;18.02;;;;;;;2.62;100.00;98971.06;5014850;28;20390;-84
2023/12/15 07:28:51;;;;;;;79.85;23.40;;;;;;;2.62;100.00;98969.28;5026731;28;20540;-83
2023/12/15 07:31:19;;;;;;;65.22;20.52;;;;;;;2.62;100.00;98969.28;5011179;28;20505;-83
2023/12/15 07:33:45;;;;;;;83.20;21.25;;;;;;;2.64;100.00;98972.53;4996646;28;21004;-84
2023/12/15 07:36:11;;;;;;;65.15;19.40;;;;;;;2.66;100.00;98977.59;4991513;28;20434;-85
2023/12/15 07:38:37;;;;;;;58.30;18.50;;;;;;;2.68;100.00;98978.25;4994175;28;20425;-83
2023/12/15 07:41:05;;;;;;;54.85;17.67;;;;;;;2.68;100.00;98976.47;4994395;28;20401;-84
2023/12/15 07:43:31;;;;;;;61.15;19.00;;;;;;;2.68;100.00;98973.03;4994178;28;20431;-83
2023/12/15 07:45:57;;;;;;;50.17;17.15;;;;;;;2.70;100.00;98984.16;4992163;28;20398;-83
2023/12/15 07:48:24;;;;;;;55.45;16.92;;;;;;;2.71;100.00;98980.53;4990513;28;20421;-84
2023/12/15 07:50:51;;;;;;;58.22;19.35;;;;;;;2.73;100.00;98983.81;4998212;28;20452;-83
2023/12/15 07:53:17;;;;;;;51.63;17.30;;;;;;;2.75;100.00;98986.25;5021878;28;20393;-80
2023/12/15 08:13:56;;;;;;;66.20;21.07;;;;;;;2.97;100.00;99019.63;5158984;22;20423;-89
2023/12/15 08:16:22;;;;;;;52.85;20.23;;;;;;;3.00;100.00;99020.13;5099161;28;20411;-89
2023/12/15 08:18:48;;;;;;;73.55;22.60;;;;;;;3.01;100.00;99016.50;5099775;28;20424;-89
2023/12/15 08:21:15;;;;;;;93.67;29.77;;;;;;;2.98;100.00;99016.03;5099880;28;20400;-89
2023/12/15 08:26:23;;;;;;;94.13;30.13;;;;;;;2.97;100.00;99017.00;5244162;22;20454;-87
2023/12/15 08:28:49;;;;;;;87.50;27.80;;;;;;;3.01;100.00;99029.59;5094849;28;20390;-87
2023/12/15 08:36:28;;;;;;;110.30;35.60;;;;;;;2.99;100.00;99021.09;5163315;22;20405;-89
2023/12/15 08:38:55;;;;;;;100.65;32.13;;;;;;;3.00;100.00;99027.97;5098817;28;20407;-88
2023/12/15 08:41:21;;;;;;;112.65;34.35;;;;;;;3.03;100.00;99027.63;5098066;28;20441;-88
2023/12/15 09:22:47;;;;;;;55.53;19.07;;;;;;;3.81;100.00;99082.91;5604392;22;20406;-86
2023/12/15 09:25:13;;;;;;;45.70;15.75;;;;;;;3.89;100.00;99090.75;5633588;22;20459;-88
2023/12/15 09:27:39;;;;;;;50.72;17.02;;;;;;;3.98;100.00;99081.09;5055657;28;20402;-88
2023/12/15 09:30:06;;;;;;;44.72;14.25;;;;;;;4.10;100.00;99092.00;5657823;22;20436;-86
2023/12/15 09:35:10;;;;;;;66.50;21.63;;;;;;;4.26;100.00;99086.72;5138392;22;20438;-86
2023/12/15 09:40:14;;;;;;;73.10;23.05;;;;;;;4.33;100.00;99092.09;5468721;22;20430;-82
2023/12/15 09:42:41;;;;;;;54.10;19.23;;;;;;;4.39;100.00;99094.03;5094089;28;20447;-83
2023/12/15 09:45:08;;;;;;;42.10;15.33;;;;;;;4.47;100.00;99099.25;5086733;28;20394;-87
2023/12/15 09:47:37;;;;;;;51.38;17.75;;;;;;;4.54;100.00;99102.84;5622770;22;20532;-86
2023/12/15 10:34:10;;;;;;;13.77;9.55;;;;;;;6.72;100.00;99130.94;5491031;22;20468;-80
2023/12/15 11:02:37;;;;;;;16.02;8.93;;;;;;;6.42;100.00;99124.88;6029522;22;20476;-88
2023/12/15 11:12:52;;;;;;;17.02;9.40;;;;;;;5.96;100.00;99135.53;4724831;22;20452;-86
2023/12/15 11:15:28;;;;;;;16.85;9.35;;;;;;;6.03;100.00;99141.72;5139777;22;20841;-86
2023/12/15 11:20:42;;;;;;;14.55;9.02;;;;;;;6.24;100.00;99142.84;5159570;23;20486;-89
2023/12/15 11:23:10;;;;;;;13.93;9.03;;;;;;;6.20;100.00;99140.56;5061495;28;20456;-86
2023/12/15 11:25:49;;;;;;;12.10;8.73;;;;;;;6.22;100.00;99153.53;5066633;28;20381;-90
2023/12/15 11:28:16;;;;;;;10.73;8.00;;;;;;;6.25;100.00;99162.88;5063838;28;20396;-88
2023/12/15 11:30:44;;;;;;;10.98;7.28;;;;;;;6.27;100.00;99160.88;5068499;28;20401;-89
2023/12/15 11:33:40;;;;;;;9.52;6.55;;;;;;;6.24;100.00;99163.91;5073845;28;20394;-88
2023/12/15 11:36:09;;;;;;;9.70;6.57;;;;;;;6.21;100.00;99154.53;5062891;28;20899;-87
2023/12/15 11:38:37;;;;;;;13.48;8.90;;;;;;;6.16;100.00;99162.16;5063736;28;20394;-88
2023/12/15 11:41:04;;;;;;;12.90;8.10;;;;;;;6.14;100.00;99161.50;5068657;28;20405;-88
2023/12/15 11:43:32;;;;;;;13.13;8.30;;;;;;;6.08;100.00;99167.50;5062445;28;20385;-86
2023/12/15 11:45:58;;;;;;;13.48;8.32;;;;;;;6.04;100.00;99167.00;5071864;28;20439;-88
2023/12/15 11:48:25;;;;;;;18.77;10.68;;;;;;;5.86;100.00;99171.75;5072003;28;20439;-89
2023/12/15 11:50:51;;;;;;;16.02;9.60;;;;;;;5.89;100.00;99170.59;5070433;28;20417;-88
2023/12/15 11:53:19;;;;;;;14.77;8.73;;;;;;;5.92;100.00;99163.19;5070964;28;20444;-89
2023/12/15 11:55:49;;;;;;;17.50;9.32;;;;;;;5.89;100.00;99168.78;5069572;28;20389;-86
2023/12/15 11:58:15;;;;;;;15.48;9.07;;;;;;;5.72;100.00;99167.25;5064164;28;20421;-89
2023/12/15 12:00:42;;;;;;;14.25;9.10;;;;;;;5.69;100.00;99165.00;5065055;28;20413;-88
2023/12/15 12:03:10;;;;;;;14.70;8.52;;;;;;;5.71;100.00;99169.06;5066146;28;20401;-88
2023/12/15 12:05:38;;;;;;;15.53;8.40;;;;;;;5.80;100.00;99177.69;5067324;28;20412;-88
2023/12/15 12:08:04;;;;;;;12.50;7.72;;;;;;;5.93;100.00;99175.34;5068535;28;20428;-89
2023/12/15 12:10:34;;;;;;;10.17;6.27;;;;;;;6.05;100.00;99168.66;5069457;28;20500;-89
2023/12/15 12:13:00;;;;;;;11.40;6.40;;;;;;;6.12;100.00;99172.19;5069538;28;20423;-83
2023/12/15 12:15:27;;;;;;;13.98;8.18;;;;;;;6.02;100.00;99163.75;5063551;28;20540;-83
2023/12/15 12:17:53;;;;;;;11.60;6.63;;;;;;;6.03;100.00;99164.56;5064163;28;20455;-85
2023/12/15 12:20:20;;;;;;;7.90;5.77;;;;;;;6.05;100.00;99167.84;5057072;28;20415;-83
2023/12/15 12:22:46;;;;;;;10.40;6.22;;;;;;;6.03;100.00;99162.75;5049204;28;20399;-83
2023/12/15 12:25:15;;;;;;;12.52;6.95;;;;;;;5.98;100.00;99161.66;5053544;28;20394;-83
2023/12/15 12:27:42;;;;;;;15.43;7.60;;;;;;;5.90;100.00;99170.44;5054327;28;20459;-84
2023/12/15 12:30:11;;;;;;;15.75;8.45;;;;;;;5.88;100.00;99171.59;5059365;28;20507;-84
2023/12/15 12:32:37;;;;;;;15.30;7.93;;;;;;;5.81;100.00;99171.44;5055191;28;20473;-84
2023/12/15 12:35:04;;;;;;;16.90;8.65;;;;;;;5.73;100.00;99166.25;5056994;28;20428;-83
2023/12/15 12:37:33;;;;;;;15.90;8.57;;;;;;;5.69;100.00;99163.19;5039725;28;20411;-82
2023/12/15 12:40:00;;;;;;;14.68;7.50;;;;;;;5.70;100.00;99164.81;5052920;28;20405;-83
2023/12/15 12:42:26;;;;;;;18.00;8.80;;;;;;;5.67;100.00;99164.34;5051752;28;20480;-83
2023/12/15 12:44:55;;;;;;;15.17;7.20;;;;;;;5.67;100.00;99167.78;5052784;28;20463;-83
2023/12/15 12:47:22;;;;;;;14.23;7.68;;;;;;;5.68;100.00;99160.72;5050073;28;20409;-81
2023/12/15 12:49:50;;;;;;;15.75;8.00;;;;;;;5.61;100.00;99159.78;5050466;28;20389;-84
2023/12/15 12:52:17;;;;;;;19.13;9.25;;;;;;;5.61;100.00;99165.06;5049041;28;20413;-82
2023/12/15 12:54:43;;;;;;;14.40;7.50;;;;;;;5.66;100.00;99163.53;5050793;28;20397;-83
2023/12/15 12:57:09;;;;;;;12.23;6.68;;;;;;;5.73;100.00;99167.06;5054005;28;20425;-84
2023/12/15 12:59:36;;;;;;;13.43;6.65;;;;;;;5.78;100.00;99163.94;5057240;28;20398;-81
2023/12/15 13:02:04;;;;;;;13.20;7.30;;;;;;;5.80;100.00;99162.75;5047210;28;20409;-82
2023/12/15 13:04:31;;;;;;;10.18;5.60;;;;;;;5.85;100.00;99170.13;5056368;28;20422;-83
2023/12/15 13:06:57;;;;;;;11.50;6.53;;;;;;;5.80;100.00;99162.75;5401413;22;20425;-87
2023/12/15 13:09:23;;;;;;;13.60;5.75;;;;;;;5.69;100.00;99165.81;5067388;28;20951;-85
2023/12/15 13:11:50;;;;;;;7.13;4.43;;;;;;;5.76;100.00;99166.75;5075768;28;20445;-86
2023/12/15 13:14:16;;;;;;;6.70;4.28;;;;;;;5.82;100.00;99167.84;5066795;28;20394;-86
2023/12/15 13:16:45;;;;;;;6.18;3.88;;;;;;;5.84;100.00;99171.94;5064305;28;20405;-86
2023/12/15 13:19:13;;;;;;;3.83;3.03;;;;;;;5.86;100.00;99174.38;5207502;22;20464;-85
2023/12/15 13:24:08;;;;;;;3.20;2.65;;;;;;;5.86;100.00;99186.72;5158410;22;20450;-85
2023/12/15 13:26:34;;;;;;;6.85;2.90;;;;;;;5.80;100.00;99194.28;4984679;28;20405;-85
2023/12/15 13:29:03;;;;;;;4.47;2.60;;;;;;;5.77;100.00;99193.84;4980537;28;20415;-86
2023/12/15 13:31:29;;;;;;;3.95;2.70;;;;;;;5.71;100.00;99187.44;4980201;28;20416;-85
2023/12/15 13:33:56;;;;;;;7.90;3.60;;;;;;;5.63;100.00;99194.59;4980475;28;20408;-87
2023/12/15 13:36:23;;;;;;;3.70;2.83;;;;;;;5.62;100.00;99188.53;4978101;28;20737;-86
2023/12/15 13:38:51;;;;;;;5.00;2.55;;;;;;;5.61;100.00;99192.13;4977212;28;20419;-86
2023/12/15 13:41:17;;;;;;;4.35;2.90;;;;;;;5.57;100.00;99190.84;4973711;28;20465;-85
2023/12/15 13:43:44;;;;;;;4.45;2.95;;;;;;;5.55;100.00;99189.41;4976085;28;20416;-84
2023/12/15 13:46:10;;;;;;;4.68;2.80;;;;;;;5.53;100.00;99186.94;4976001;28;20407;-84
2023/12/15 13:48:37;;;;;;;6.15;3.08;;;;;;;5.52;100.00;99195.81;4974711;28;20469;-85
2023/12/15 13:51:03;;;;;;;4.07;2.70;;;;;;;5.50;100.00;99191.72;4975043;28;20431;-84